sensor_id;sensor_type;location;lat;lon;timestamp;temperature;humidity
7331;DHT22;3706;49.198;7.064;2023-11-21T00:01:46;8.40;99.90
7331;DHT22;3706;49.198;7.064;2023-11-21T00:05:18;8.40;99.90
7331;DHT22;3706;49.198;7.064;2023-11-21T00:09:00;8.50;99.90
7331;DHT22;3706;49.198;7.064;2023-11-21T00:12:40;8.50;99.90
7331;DHT22;3706;49.198;7.064;2023-11-21T00:16:14;8.50;99.90
7331;DHT22;3706;49.198;7.064;2023-11-21T00:19:46;8.50;99.90
7331;DHT22;3706;49.198;7.064;2023-11-21T00:23:26;8.50;99.90
7331;DHT22;3706;49.198;7.064;2023-11-21T00:27:05;8.50;99.90
7331;DHT22;3706;49.198;7.064;2023-11-21T00:30:39;8.50;99.90
7331;DHT22;3706;49.198;7.064;2023-11-21T00:34:12;8.40;99.90
7331;DHT22;3706;49.198;7.064;2023-11-21T00:37:51;8.40;99.90
7331;DHT22;3706;49.198;7.064;2023-11-21T00:41:31;8.40;99.90
7331;DHT22;3706;49.198;7.064;2023-11-21T00:45:06;8.40;99.90
7331;DHT22;3706;49.198;7.064;2023-11-21T00:48:38;8.40;99.90
7331;DHT22;3706;49.198;7.064;2023-11-21T00:52:17;8.30;99.90
7331;DHT22;3706;49.198;7.064;2023-11-21T00:55:55;8.40;99.90
7331;DHT22;3706;49.198;7.064;2023-11-21T00:59:31;8.40;99.90
7331;DHT22;3706;49.198;7.064;2023-11-21T01:03:03;8.40;99.90
7331;DHT22;3706;49.198;7.064;2023-11-21T01:06:42;8.40;99.90
7331;DHT22;3706;49.198;7.064;2023-11-21T01:10:21;8.40;99.90
7331;DHT22;3706;49.198;7.064;2023-11-21T01:13:56;8.40;99.90
7331;DHT22;3706;49.198;7.064;2023-11-21T01:17:31;8.40;99.90
7331;DHT22;3706;49.198;7.064;2023-11-21T01:21:11;8.40;99.90
7331;DHT22;3706;49.198;7.064;2023-11-21T01:24:50;8.30;99.90
7331;DHT22;3706;49.198;7.064;2023-11-21T01:28:24;8.30;99.90
7331;DHT22;3706;49.198;7.064;2023-11-21T01:31:56;8.40;99.90
7331;DHT22;3706;49.198;7.064;2023-11-21T01:35:36;8.40;99.90
7331;DHT22;3706;49.198;7.064;2023-11-21T01:39:15;8.40;99.90
7331;DHT22;3706;49.198;7.064;2023-11-21T01:42:56;8.40;99.90
7331;DHT22;3706;49.198;7.064;2023-11-21T01:46:29;8.30;99.90
7331;DHT22;3706;49.198;7.064;2023-11-21T01:50:09;8.40;99.90
7331;DHT22;3706;49.198;7.064;2023-11-21T01:53:52;8.30;99.90
7331;DHT22;3706;49.198;7.064;2023-11-21T01:57:26;8.30;99.90
7331;DHT22;3706;49.198;7.064;2023-11-21T02:00:57;8.30;99.90
7331;DHT22;3706;49.198;7.064;2023-11-21T02:04:37;8.30;99.90
7331;DHT22;3706;49.198;7.064;2023-11-21T02:08:15;8.30;99.90
7331;DHT22;3706;49.198;7.064;2023-11-21T02:11:51;8.30;99.90
7331;DHT22;3706;49.198;7.064;2023-11-21T02:15:24;8.40;99.90
7331;DHT22;3706;49.198;7.064;2023-11-21T02:19:07;8.40;99.90
7331;DHT22;3706;49.198;7.064;2023-11-21T02:22:53;8.40;99.90
7331;DHT22;3706;49.198;7.064;2023-11-21T02:26:31;8.40;99.90
7331;DHT22;3706;49.198;7.064;2023-11-21T02:30:03;8.40;99.90
7331;DHT22;3706;49.198;7.064;2023-11-21T02:33:42;8.30;99.90
7331;DHT22;3706;49.198;7.064;2023-11-21T02:37:21;8.30;99.90
7331;DHT22;3706;49.198;7.064;2023-11-21T02:40:57;8.30;99.90
7331;DHT22;3706;49.198;7.064;2023-11-21T02:44:29;8.30;99.90
7331;DHT22;3706;49.198;7.064;2023-11-21T02:48:08;8.30;99.90
7331;DHT22;3706;49.198;7.064;2023-11-21T02:51:46;8.20;99.90
7331;DHT22;3706;49.198;7.064;2023-11-21T02:55:21;8.20;99.90
7331;DHT22;3706;49.198;7.064;2023-11-21T02:58:57;8.20;99.90
7331;DHT22;3706;49.198;7.064;2023-11-21T03:02:35;8.30;99.90
7331;DHT22;3706;49.198;7.064;2023-11-21T03:06:16;8.40;99.90
7331;DHT22;3706;49.198;7.064;2023-11-21T03:09:50;8.40;99.90
7331;DHT22;3706;49.198;7.064;2023-11-21T03:13:21;8.40;99.90
7331;DHT22;3706;49.198;7.064;2023-11-21T03:17:01;8.40;99.90
7331;DHT22;3706;49.198;7.064;2023-11-21T03:20:43;8.40;99.90
7331;DHT22;3706;49.198;7.064;2023-11-21T03:24:19;8.40;99.90
7331;DHT22;3706;49.198;7.064;2023-11-21T03:27:52;8.40;99.90
7331;DHT22;3706;49.198;7.064;2023-11-21T03:31:31;8.40;99.90
7331;DHT22;3706;49.198;7.064;2023-11-21T03:35:12;8.40;99.90
7331;DHT22;3706;49.198;7.064;2023-11-21T03:38:48;8.40;99.90
7331;DHT22;3706;49.198;7.064;2023-11-21T03:42:19;8.50;99.90
7331;DHT22;3706;49.198;7.064;2023-11-21T03:45:58;8.50;99.90
7331;DHT22;3706;49.198;7.064;2023-11-21T03:49:37;8.50;99.90
7331;DHT22;3706;49.198;7.064;2023-11-21T03:53:13;8.50;99.90
7331;DHT22;3706;49.198;7.064;2023-11-21T03:56:44;8.50;99.90
7331;DHT22;3706;49.198;7.064;2023-11-21T04:00:23;8.50;99.90
7331;DHT22;3706;49.198;7.064;2023-11-21T04:04:04;8.60;99.90
7331;DHT22;3706;49.198;7.064;2023-11-21T04:07:38;8.50;99.90
7331;DHT22;3706;49.198;7.064;2023-11-21T04:11:12;8.60;99.90
7331;DHT22;3706;49.198;7.064;2023-11-21T04:14:51;8.60;99.90
7331;DHT22;3706;49.198;7.064;2023-11-21T04:18:30;8.60;99.90
7331;DHT22;3706;49.198;7.064;2023-11-21T04:22:04;8.60;99.90
7331;DHT22;3706;49.198;7.064;2023-11-21T04:25:35;8.60;99.90
7331;DHT22;3706;49.198;7.064;2023-11-21T04:29:15;8.50;99.90
7331;DHT22;3706;49.198;7.064;2023-11-21T04:32:54;8.50;99.90
7331;DHT22;3706;49.198;7.064;2023-11-21T04:36:28;8.40;99.90
7331;DHT22;3706;49.198;7.064;2023-11-21T04:40:00;8.40;99.90
7331;DHT22;3706;49.198;7.064;2023-11-21T04:43:43;8.30;99.90
7331;DHT22;3706;49.198;7.064;2023-11-21T04:47:24;8.30;99.90
7331;DHT22;3706;49.198;7.064;2023-11-21T04:50:59;8.30;99.90
7331;DHT22;3706;49.198;7.064;2023-11-21T04:54:30;8.30;99.90
7331;DHT22;3706;49.198;7.064;2023-11-21T04:58:09;8.40;99.90
7331;DHT22;3706;49.198;7.064;2023-11-21T05:01:49;8.40;99.90
7331;DHT22;3706;49.198;7.064;2023-11-21T05:05:25;8.40;99.90
7331;DHT22;3706;49.198;7.064;2023-11-21T05:08:56;8.40;99.90
7331;DHT22;3706;49.198;7.064;2023-11-21T05:12:36;8.40;99.90
7331;DHT22;3706;49.198;7.064;2023-11-21T05:16:15;8.40;99.90
7331;DHT22;3706;49.198;7.064;2023-11-21T05:19:49;8.40;99.90
7331;DHT22;3706;49.198;7.064;2023-11-21T05:23:23;8.40;99.90
7331;DHT22;3706;49.198;7.064;2023-11-21T05:27:02;8.40;99.90
7331;DHT22;3706;49.198;7.064;2023-11-21T05:30:41;8.40;99.90
7331;DHT22;3706;49.198;7.064;2023-11-21T05:34:15;8.40;99.90
7331;DHT22;3706;49.198;7.064;2023-11-21T05:37:46;8.50;99.90
7331;DHT22;3706;49.198;7.064;2023-11-21T05:41:27;8.50;99.90
7331;DHT22;3706;49.198;7.064;2023-11-21T05:45:06;8.40;99.90
7331;DHT22;3706;49.198;7.064;2023-11-21T05:48:43;8.50;99.90
7331;DHT22;3706;49.198;7.064;2023-11-21T05:52:15;8.50;99.90
7331;DHT22;3706;49.198;7.064;2023-11-21T05:55:54;8.50;99.90
7331;DHT22;3706;49.198;7.064;2023-11-21T05:59:35;8.40;99.90
7331;DHT22;3706;49.198;7.064;2023-11-21T06:03:10;8.50;99.90
7331;DHT22;3706;49.198;7.064;2023-11-21T06:06:41;8.40;99.90
7331;DHT22;3706;49.198;7.064;2023-11-21T06:10:20;8.40;99.90
7331;DHT22;3706;49.198;7.064;2023-11-21T06:14:00;8.40;99.90
7331;DHT22;3706;49.198;7.064;2023-11-21T06:17:35;8.40;99.90
7331;DHT22;3706;49.198;7.064;2023-11-21T06:21:09;8.30;99.90
7331;DHT22;3706;49.198;7.064;2023-11-21T06:24:48;8.30;99.90
7331;DHT22;3706;49.198;7.064;2023-11-21T06:28:27;8.30;99.90
7331;DHT22;3706;49.198;7.064;2023-11-21T06:32:01;8.30;99.90
7331;DHT22;3706;49.198;7.064;2023-11-21T06:35:37;8.30;99.90
7331;DHT22;3706;49.198;7.064;2023-11-21T06:39:15;8.20;99.90
7331;DHT22;3706;49.198;7.064;2023-11-21T06:42:55;8.20;99.90
7331;DHT22;3706;49.198;7.064;2023-11-21T06:46:31;8.20;99.90
7331;DHT22;3706;49.198;7.064;2023-11-21T06:50:03;8.20;99.90
7331;DHT22;3706;49.198;7.064;2023-11-21T06:53:44;8.20;99.90
7331;DHT22;3706;49.198;7.064;2023-11-21T06:57:23;8.20;99.90
7331;DHT22;3706;49.198;7.064;2023-11-21T07:00:57;8.20;99.90
7331;DHT22;3706;49.198;7.064;2023-11-21T07:04:29;8.20;99.90
7331;DHT22;3706;49.198;7.064;2023-11-21T07:08:07;8.20;99.90
7331;DHT22;3706;49.198;7.064;2023-11-21T07:11:48;8.20;99.90
7331;DHT22;3706;49.198;7.064;2023-11-21T07:15:24;8.20;99.90
7331;DHT22;3706;49.198;7.064;2023-11-21T07:18:55;8.30;99.90
7331;DHT22;3706;49.198;7.064;2023-11-21T07:22:34;8.30;99.90
7331;DHT22;3706;49.198;7.064;2023-11-21T07:26:13;8.40;99.90
7331;DHT22;3706;49.198;7.064;2023-11-21T07:29:49;8.40;99.90
7331;DHT22;3706;49.198;7.064;2023-11-21T07:33:20;8.40;99.90
7331;DHT22;3706;49.198;7.064;2023-11-21T07:36:59;8.40;99.90
7331;DHT22;3706;49.198;7.064;2023-11-21T07:40:37;8.50;99.90
7331;DHT22;3706;49.198;7.064;2023-11-21T07:44:12;8.50;99.90
7331;DHT22;3706;49.198;7.064;2023-11-21T07:47:45;8.60;99.90
7331;DHT22;3706;49.198;7.064;2023-11-21T07:51:24;8.50;99.90
7331;DHT22;3706;49.198;7.064;2023-11-21T07:55:03;8.50;99.90
7331;DHT22;3706;49.198;7.064;2023-11-21T07:58:38;8.50;99.90
7331;DHT22;3706;49.198;7.064;2023-11-21T08:02:09;8.60;99.90
7331;DHT22;3706;49.198;7.064;2023-11-21T08:05:49;8.60;99.90
7331;DHT22;3706;49.198;7.064;2023-11-21T08:09:28;8.60;99.90
7331;DHT22;3706;49.198;7.064;2023-11-21T08:13:03;8.70;99.90
7331;DHT22;3706;49.198;7.064;2023-11-21T08:16:34;8.70;99.90
7331;DHT22;3706;49.198;7.064;2023-11-21T08:20:13;8.80;99.90
7331;DHT22;3706;49.198;7.064;2023-11-21T08:23:55;8.90;99.90
7331;DHT22;3706;49.198;7.064;2023-11-21T08:27:30;8.90;99.90
7331;DHT22;3706;49.198;7.064;2023-11-21T08:31:01;9.00;99.90
7331;DHT22;3706;49.198;7.064;2023-11-21T08:34:41;9.10;99.90
7331;DHT22;3706;49.198;7.064;2023-11-21T08:38:22;9.20;99.90
7331;DHT22;3706;49.198;7.064;2023-11-21T08:41:58;9.20;99.90
7331;DHT22;3706;49.198;7.064;2023-11-21T08:45:29;9.30;99.90
7331;DHT22;3706;49.198;7.064;2023-11-21T08:49:08;9.30;99.90
7331;DHT22;3706;49.198;7.064;2023-11-21T08:52:47;9.40;99.90
7331;DHT22;3706;49.198;7.064;2023-11-21T08:56:22;9.60;99.90
7331;DHT22;3706;49.198;7.064;2023-11-21T08:59:55;9.80;99.90
7331;DHT22;3706;49.198;7.064;2023-11-21T09:03:34;10.00;99.90
7331;DHT22;3706;49.198;7.064;2023-11-21T09:07:13;10.20;99.90
7331;DHT22;3706;49.198;7.064;2023-11-21T09:10:47;10.40;99.90
7331;DHT22;3706;49.198;7.064;2023-11-21T09:14:18;10.50;99.90
7331;DHT22;3706;49.198;7.064;2023-11-21T09:17:58;10.60;99.90
7331;DHT22;3706;49.198;7.064;2023-11-21T09:21:38;10.60;99.90
7331;DHT22;3706;49.198;7.064;2023-11-21T09:25:12;10.70;99.90
7331;DHT22;3706;49.198;7.064;2023-11-21T09:28:44;10.90;99.90
7331;DHT22;3706;49.198;7.064;2023-11-21T09:32:24;11.00;99.90
7331;DHT22;3706;49.198;7.064;2023-11-21T09:36:10;11.10;99.90
7331;DHT22;3706;49.198;7.064;2023-11-21T09:39:45;11.20;99.90
7331;DHT22;3706;49.198;7.064;2023-11-21T09:43:18;11.40;99.90
7331;DHT22;3706;49.198;7.064;2023-11-21T09:46:59;11.60;99.90
7331;DHT22;3706;49.198;7.064;2023-11-21T09:50:40;11.60;99.90
7331;DHT22;3706;49.198;7.064;2023-11-21T09:54:17;11.60;99.90
7331;DHT22;3706;49.198;7.064;2023-11-21T09:57:49;12.00;99.90
7331;DHT22;3706;49.198;7.064;2023-11-21T10:01:29;12.50;99.90
7331;DHT22;3706;49.198;7.064;2023-11-21T10:05:07;12.90;99.90
7331;DHT22;3706;49.198;7.064;2023-11-21T10:08:44;12.70;99.90
7331;DHT22;3706;49.198;7.064;2023-11-21T10:12:18;12.30;99.90
7331;DHT22;3706;49.198;7.064;2023-11-21T10:15:59;12.00;99.90
7331;DHT22;3706;49.198;7.064;2023-11-21T10:19:42;11.90;99.90
7331;DHT22;3706;49.198;7.064;2023-11-21T10:23:18;11.90;99.90
7331;DHT22;3706;49.198;7.064;2023-11-21T10:26:51;12.10;99.90
7331;DHT22;3706;49.198;7.064;2023-11-21T10:30:34;12.10;99.90
7331;DHT22;3706;49.198;7.064;2023-11-21T10:34:15;12.00;99.90
7331;DHT22;3706;49.198;7.064;2023-11-21T10:38:00;11.80;99.90
7331;DHT22;3706;49.198;7.064;2023-11-21T10:41:33;11.60;99.90
7331;DHT22;3706;49.198;7.064;2023-11-21T10:45:12;11.50;99.90
7331;DHT22;3706;49.198;7.064;2023-11-21T10:48:54;11.40;99.90
7331;DHT22;3706;49.198;7.064;2023-11-21T10:52:29;11.40;99.90
7331;DHT22;3706;49.198;7.064;2023-11-21T10:56:02;11.50;99.90
7331;DHT22;3706;49.198;7.064;2023-11-21T10:59:43;11.50;99.90
7331;DHT22;3706;49.198;7.064;2023-11-21T11:03:25;11.40;99.90
7331;DHT22;3706;49.198;7.064;2023-11-21T11:07:02;11.10;99.90
7331;DHT22;3706;49.198;7.064;2023-11-21T11:10:34;11.00;99.90
7331;DHT22;3706;49.198;7.064;2023-11-21T11:14:13;10.90;99.90
7331;DHT22;3706;49.198;7.064;2023-11-21T11:17:52;10.80;99.90
7331;DHT22;3706;49.198;7.064;2023-11-21T11:21:37;10.80;99.90
7331;DHT22;3706;49.198;7.064;2023-11-21T11:25:30;11.10;99.90
7331;DHT22;3706;49.198;7.064;2023-11-21T11:29:19;11.50;99.90
7331;DHT22;3706;49.198;7.064;2023-11-21T11:33:03;11.80;99.90
7331;DHT22;3706;49.198;7.064;2023-11-21T11:36:47;11.80;99.90
7331;DHT22;3706;49.198;7.064;2023-11-21T11:40:19;11.80;99.90
7331;DHT22;3706;49.198;7.064;2023-11-21T11:44:00;12.00;99.90
7331;DHT22;3706;49.198;7.064;2023-11-21T11:47:39;12.10;99.90
7331;DHT22;3706;49.198;7.064;2023-11-21T11:51:14;12.00;99.90
7331;DHT22;3706;49.198;7.064;2023-11-21T11:54:49;11.90;99.90
7331;DHT22;3706;49.198;7.064;2023-11-21T11:58:37;11.90;99.90
7331;DHT22;3706;49.198;7.064;2023-11-21T12:02:21;12.10;99.90
7331;DHT22;3706;49.198;7.064;2023-11-21T12:05:57;12.20;99.90
7331;DHT22;3706;49.198;7.064;2023-11-21T12:09:30;12.30;99.90
7331;DHT22;3706;49.198;7.064;2023-11-21T12:13:10;12.30;99.90
7331;DHT22;3706;49.198;7.064;2023-11-21T12:16:50;12.40;99.90
7331;DHT22;3706;49.198;7.064;2023-11-21T12:20:27;12.40;99.90
7331;DHT22;3706;49.198;7.064;2023-11-21T12:23:59;12.40;99.90
7331;DHT22;3706;49.198;7.064;2023-11-21T12:27:38;12.30;99.90
7331;DHT22;3706;49.198;7.064;2023-11-21T12:31:16;12.20;99.90
7331;DHT22;3706;49.198;7.064;2023-11-21T12:34:51;12.00;99.90
7331;DHT22;3706;49.198;7.064;2023-11-21T12:38:25;11.70;99.90
7331;DHT22;3706;49.198;7.064;2023-11-21T12:42:04;11.40;99.90
7331;DHT22;3706;49.198;7.064;2023-11-21T12:45:44;11.40;99.90
7331;DHT22;3706;49.198;7.064;2023-11-21T12:49:18;11.40;99.90
7331;DHT22;3706;49.198;7.064;2023-11-21T12:52:52;11.50;99.90
7331;DHT22;3706;49.198;7.064;2023-11-21T12:56:32;11.60;99.90
7331;DHT22;3706;49.198;7.064;2023-11-21T13:00:13;11.60;99.90
7331;DHT22;3706;49.198;7.064;2023-11-21T13:03:59;11.50;99.90
7331;DHT22;3706;49.198;7.064;2023-11-21T13:07:41;11.30;99.90
7331;DHT22;3706;49.198;7.064;2023-11-21T13:11:24;11.00;99.90
7331;DHT22;3706;49.198;7.064;2023-11-21T13:15:07;10.80;99.90
7331;DHT22;3706;49.198;7.064;2023-11-21T13:18:43;10.60;99.90
7331;DHT22;3706;49.198;7.064;2023-11-21T13:22:14;10.60;99.90
7331;DHT22;3706;49.198;7.064;2023-11-21T13:25:55;10.70;99.90
7331;DHT22;3706;49.198;7.064;2023-11-21T13:29:35;11.00;99.90
7331;DHT22;3706;49.198;7.064;2023-11-21T13:33:11;11.30;99.90
7331;DHT22;3706;49.198;7.064;2023-11-21T13:36:47;11.30;99.90
7331;DHT22;3706;49.198;7.064;2023-11-21T13:40:29;11.30;99.90
7331;DHT22;3706;49.198;7.064;2023-11-21T13:44:08;11.10;99.90
7331;DHT22;3706;49.198;7.064;2023-11-21T13:47:50;10.90;99.90
7331;DHT22;3706;49.198;7.064;2023-11-21T13:51:29;10.80;99.90
7331;DHT22;3706;49.198;7.064;2023-11-21T13:55:16;10.70;99.90
7331;DHT22;3706;49.198;7.064;2023-11-21T13:58:55;10.60;99.90
7331;DHT22;3706;49.198;7.064;2023-11-21T14:02:31;10.50;99.90
7331;DHT22;3706;49.198;7.064;2023-11-21T14:06:09;10.40;99.90
7331;DHT22;3706;49.198;7.064;2023-11-21T14:09:59;10.40;99.90
7331;DHT22;3706;49.198;7.064;2023-11-21T14:13:38;10.30;99.90
7331;DHT22;3706;49.198;7.064;2023-11-21T14:17:18;10.30;99.90
7331;DHT22;3706;49.198;7.064;2023-11-21T14:20:52;10.20;99.90
7331;DHT22;3706;49.198;7.064;2023-11-21T14:24:30;10.20;99.90
7331;DHT22;3706;49.198;7.064;2023-11-21T14:28:11;10.20;99.90
7331;DHT22;3706;49.198;7.064;2023-11-21T14:31:46;10.20;99.90
7331;DHT22;3706;49.198;7.064;2023-11-21T14:35:18;10.10;99.90
7331;DHT22;3706;49.198;7.064;2023-11-21T14:38:57;10.10;99.90
7331;DHT22;3706;49.198;7.064;2023-11-21T14:42:36;10.10;99.90
7331;DHT22;3706;49.198;7.064;2023-11-21T14:46:14;10.20;99.90
7331;DHT22;3706;49.198;7.064;2023-11-21T14:49:47;10.20;99.90
7331;DHT22;3706;49.198;7.064;2023-11-21T14:53:30;10.20;99.90
7331;DHT22;3706;49.198;7.064;2023-11-21T14:57:20;10.30;99.90
7331;DHT22;3706;49.198;7.064;2023-11-21T15:00:56;10.30;99.90
7331;DHT22;3706;49.198;7.064;2023-11-21T15:04:30;10.30;99.90
7331;DHT22;3706;49.198;7.064;2023-11-21T15:08:13;10.30;99.90
7331;DHT22;3706;49.198;7.064;2023-11-21T15:11:59;10.20;99.90
7331;DHT22;3706;49.198;7.064;2023-11-21T15:15:42;10.10;99.90
7331;DHT22;3706;49.198;7.064;2023-11-21T15:19:13;10.00;99.90
7331;DHT22;3706;49.198;7.064;2023-11-21T15:22:57;10.00;99.90
7331;DHT22;3706;49.198;7.064;2023-11-21T15:26:36;9.90;99.90
7331;DHT22;3706;49.198;7.064;2023-11-21T15:30:10;9.80;99.90
7331;DHT22;3706;49.198;7.064;2023-11-21T15:33:41;9.80;99.90
7331;DHT22;3706;49.198;7.064;2023-11-21T15:37:20;9.70;99.90
7331;DHT22;3706;49.198;7.064;2023-11-21T15:41:01;9.60;99.90
7331;DHT22;3706;49.198;7.064;2023-11-21T15:44:36;9.50;99.90
7331;DHT22;3706;49.198;7.064;2023-11-21T15:48:08;9.50;99.90
7331;DHT22;3706;49.198;7.064;2023-11-21T15:51:48;9.50;99.90
7331;DHT22;3706;49.198;7.064;2023-11-21T15:55:31;9.40;99.90
7331;DHT22;3706;49.198;7.064;2023-11-21T15:59:10;9.30;99.90
7331;DHT22;3706;49.198;7.064;2023-11-21T16:02:42;9.30;99.90
7331;DHT22;3706;49.198;7.064;2023-11-21T16:06:21;9.30;99.90
7331;DHT22;3706;49.198;7.064;2023-11-21T16:10:00;9.30;99.90
7331;DHT22;3706;49.198;7.064;2023-11-21T16:13:35;9.20;99.90
7331;DHT22;3706;49.198;7.064;2023-11-21T16:17:08;9.20;99.90
7331;DHT22;3706;49.198;7.064;2023-11-21T16:20:48;9.20;99.90
7331;DHT22;3706;49.198;7.064;2023-11-21T16:24:27;9.20;99.90
7331;DHT22;3706;49.198;7.064;2023-11-21T16:28:03;9.10;99.90
7331;DHT22;3706;49.198;7.064;2023-11-21T16:31:35;9.10;99.90
7331;DHT22;3706;49.198;7.064;2023-11-21T16:35:15;9.10;99.90
7331;DHT22;3706;49.198;7.064;2023-11-21T16:38:55;9.10;99.90
7331;DHT22;3706;49.198;7.064;2023-11-21T16:42:30;9.20;99.90
7331;DHT22;3706;49.198;7.064;2023-11-21T16:46:02;9.10;99.90
7331;DHT22;3706;49.198;7.064;2023-11-21T16:49:42;9.10;99.90
7331;DHT22;3706;49.198;7.064;2023-11-21T16:53:24;9.10;99.90
7331;DHT22;3706;49.198;7.064;2023-11-21T16:56:59;9.00;99.90
7331;DHT22;3706;49.198;7.064;2023-11-21T17:00:31;9.00;99.90
7331;DHT22;3706;49.198;7.064;2023-11-21T17:04:10;8.90;99.90
7331;DHT22;3706;49.198;7.064;2023-11-21T17:07:49;8.80;99.90
7331;DHT22;3706;49.198;7.064;2023-11-21T17:11:24;8.70;99.90
7331;DHT22;3706;49.198;7.064;2023-11-21T17:14:56;8.60;99.90
7331;DHT22;3706;49.198;7.064;2023-11-21T17:18:35;8.50;99.90
7331;DHT22;3706;49.198;7.064;2023-11-21T17:22:15;8.30;99.90
7331;DHT22;3706;49.198;7.064;2023-11-21T17:25:49;8.30;99.90
7331;DHT22;3706;49.198;7.064;2023-11-21T17:29:22;8.20;99.90
7331;DHT22;3706;49.198;7.064;2023-11-21T17:33:01;8.20;99.90
7331;DHT22;3706;49.198;7.064;2023-11-21T17:36:40;8.20;99.90
7331;DHT22;3706;49.198;7.064;2023-11-21T17:40:15;8.20;99.90
7331;DHT22;3706;49.198;7.064;2023-11-21T17:44:26;8.20;99.90
7331;DHT22;3706;49.198;7.064;2023-11-21T17:48:05;8.20;99.90
7331;DHT22;3706;49.198;7.064;2023-11-21T17:51:44;8.10;99.90
7331;DHT22;3706;49.198;7.064;2023-11-21T17:55:20;8.10;99.90
7331;DHT22;3706;49.198;7.064;2023-11-21T17:58:51;8.10;99.90
7331;DHT22;3706;49.198;7.064;2023-11-21T18:02:32;8.10;99.90
7331;DHT22;3706;49.198;7.064;2023-11-21T18:06:12;8.00;99.90
7331;DHT22;3706;49.198;7.064;2023-11-21T18:09:48;8.10;99.90
7331;DHT22;3706;49.198;7.064;2023-11-21T18:13:19;8.20;99.90
7331;DHT22;3706;49.198;7.064;2023-11-21T18:16:58;8.20;99.90
7331;DHT22;3706;49.198;7.064;2023-11-21T18:20:38;8.20;99.90
7331;DHT22;3706;49.198;7.064;2023-11-21T18:24:14;8.20;99.90
7331;DHT22;3706;49.198;7.064;2023-11-21T18:27:45;8.20;99.90
7331;DHT22;3706;49.198;7.064;2023-11-21T18:31:24;8.30;99.90
7331;DHT22;3706;49.198;7.064;2023-11-21T18:35:04;8.40;99.90
7331;DHT22;3706;49.198;7.064;2023-11-21T18:38:39;8.40;99.90
7331;DHT22;3706;49.198;7.064;2023-11-21T18:42:12;8.40;99.90
7331;DHT22;3706;49.198;7.064;2023-11-21T18:45:51;8.40;99.90
7331;DHT22;3706;49.198;7.064;2023-11-21T18:49:30;8.40;99.90
7331;DHT22;3706;49.198;7.064;2023-11-21T18:53:05;8.40;99.90
7331;DHT22;3706;49.198;7.064;2023-11-21T18:56:37;8.40;99.90
7331;DHT22;3706;49.198;7.064;2023-11-21T19:00:17;8.20;99.90
7331;DHT22;3706;49.198;7.064;2023-11-21T19:03:57;8.20;99.90
7331;DHT22;3706;49.198;7.064;2023-11-21T19:07:32;8.10;99.90
7331;DHT22;3706;49.198;7.064;2023-11-21T19:11:05;8.10;99.90
7331;DHT22;3706;49.198;7.064;2023-11-21T19:14:46;8.00;99.90
7331;DHT22;3706;49.198;7.064;2023-11-21T19:18:28;8.00;99.90
7331;DHT22;3706;49.198;7.064;2023-11-21T19:22:03;7.90;99.90
7331;DHT22;3706;49.198;7.064;2023-11-21T19:25:34;7.90;99.90
7331;DHT22;3706;49.198;7.064;2023-11-21T19:29:13;7.80;99.90
7331;DHT22;3706;49.198;7.064;2023-11-21T19:32:54;7.90;99.90
7331;DHT22;3706;49.198;7.064;2023-11-21T19:36:32;8.00;99.90
7331;DHT22;3706;49.198;7.064;2023-11-21T19:40:05;8.10;99.90
7331;DHT22;3706;49.198;7.064;2023-11-21T19:43:45;8.20;99.90
7331;DHT22;3706;49.198;7.064;2023-11-21T19:47:25;8.20;99.90
7331;DHT22;3706;49.198;7.064;2023-11-21T19:51:00;8.30;99.90
7331;DHT22;3706;49.198;7.064;2023-11-21T19:54:34;8.30;99.90
7331;DHT22;3706;49.198;7.064;2023-11-21T19:58:13;8.30;99.90
7331;DHT22;3706;49.198;7.064;2023-11-21T20:01:55;8.40;99.90
7331;DHT22;3706;49.198;7.064;2023-11-21T20:05:29;8.40;99.90
7331;DHT22;3706;49.198;7.064;2023-11-21T20:09:03;8.40;99.90
7331;DHT22;3706;49.198;7.064;2023-11-21T20:12:42;8.40;99.90
7331;DHT22;3706;49.198;7.064;2023-11-21T20:16:21;8.40;99.90
7331;DHT22;3706;49.198;7.064;2023-11-21T20:19:55;8.40;99.90
7331;DHT22;3706;49.198;7.064;2023-11-21T20:23:26;8.40;99.90
7331;DHT22;3706;49.198;7.064;2023-11-21T20:27:10;8.40;99.90
7331;DHT22;3706;49.198;7.064;2023-11-21T20:30:49;8.40;99.90
7331;DHT22;3706;49.198;7.064;2023-11-21T20:34:24;8.40;99.90
7331;DHT22;3706;49.198;7.064;2023-11-21T20:37:55;8.40;99.90
7331;DHT22;3706;49.198;7.064;2023-11-21T20:41:34;8.40;99.90
7331;DHT22;3706;49.198;7.064;2023-11-21T20:45:14;8.40;99.90
7331;DHT22;3706;49.198;7.064;2023-11-21T20:48:49;8.30;99.90
7331;DHT22;3706;49.198;7.064;2023-11-21T20:52:20;8.20;99.90
7331;DHT22;3706;49.198;7.064;2023-11-21T20:55:59;8.20;99.90
7331;DHT22;3706;49.198;7.064;2023-11-21T20:59:38;8.20;99.90
7331;DHT22;3706;49.198;7.064;2023-11-21T21:03:14;8.20;99.90
7331;DHT22;3706;49.198;7.064;2023-11-21T21:06:46;8.20;99.90
7331;DHT22;3706;49.198;7.064;2023-11-21T21:10:25;8.10;99.90
7331;DHT22;3706;49.198;7.064;2023-11-21T21:14:04;8.10;99.90
7331;DHT22;3706;49.198;7.064;2023-11-21T21:17:39;8.10;99.90
7331;DHT22;3706;49.198;7.064;2023-11-21T21:21:11;8.00;99.90
7331;DHT22;3706;49.198;7.064;2023-11-21T21:24:51;7.90;99.90
7331;DHT22;3706;49.198;7.064;2023-11-21T21:28:30;7.80;99.90
7331;DHT22;3706;49.198;7.064;2023-11-21T21:32:05;7.80;99.90
7331;DHT22;3706;49.198;7.064;2023-11-21T21:35:37;7.70;99.90
7331;DHT22;3706;49.198;7.064;2023-11-21T21:39:17;7.60;99.90
7331;DHT22;3706;49.198;7.064;2023-11-21T21:42:58;7.70;99.90
7331;DHT22;3706;49.198;7.064;2023-11-21T21:46:34;7.70;99.90
7331;DHT22;3706;49.198;7.064;2023-11-21T21:50:06;7.70;99.90
7331;DHT22;3706;49.198;7.064;2023-11-21T21:53:46;7.70;99.90
7331;DHT22;3706;49.198;7.064;2023-11-21T21:57:26;7.90;99.90
7331;DHT22;3706;49.198;7.064;2023-11-21T22:01:02;7.90;99.90
7331;DHT22;3706;49.198;7.064;2023-11-21T22:04:33;7.90;99.90
7331;DHT22;3706;49.198;7.064;2023-11-21T22:08:12;7.80;99.90
7331;DHT22;3706;49.198;7.064;2023-11-21T22:11:51;7.80;99.90
7331;DHT22;3706;49.198;7.064;2023-11-21T22:15:26;7.80;99.90
7331;DHT22;3706;49.198;7.064;2023-11-21T22:18:58;7.70;99.90
7331;DHT22;3706;49.198;7.064;2023-11-21T22:22:37;7.70;99.90
7331;DHT22;3706;49.198;7.064;2023-11-21T22:26:16;7.70;99.90
7331;DHT22;3706;49.198;7.064;2023-11-21T22:29:52;7.80;99.90
7331;DHT22;3706;49.198;7.064;2023-11-21T22:33:25;7.90;99.90
7331;DHT22;3706;49.198;7.064;2023-11-21T22:37:03;8.10;99.90
7331;DHT22;3706;49.198;7.064;2023-11-21T22:40:42;8.10;99.90
7331;DHT22;3706;49.198;7.064;2023-11-21T22:44:17;8.20;99.90
7331;DHT22;3706;49.198;7.064;2023-11-21T22:47:48;8.10;99.90
7331;DHT22;3706;49.198;7.064;2023-11-21T22:51:28;8.20;99.90
7331;DHT22;3706;49.198;7.064;2023-11-21T22:55:08;8.20;99.90
7331;DHT22;3706;49.198;7.064;2023-11-21T22:58:43;8.20;99.90
7331;DHT22;3706;49.198;7.064;2023-11-21T23:02:15;8.20;99.90
7331;DHT22;3706;49.198;7.064;2023-11-21T23:05:53;8.10;99.90
7331;DHT22;3706;49.198;7.064;2023-11-21T23:09:33;8.20;99.90
7331;DHT22;3706;49.198;7.064;2023-11-21T23:13:09;8.20;99.90
7331;DHT22;3706;49.198;7.064;2023-11-21T23:16:40;8.20;99.90
7331;DHT22;3706;49.198;7.064;2023-11-21T23:20:19;8.20;99.90
7331;DHT22;3706;49.198;7.064;2023-11-21T23:23:59;8.10;99.90
7331;DHT22;3706;49.198;7.064;2023-11-21T23:27:42;8.00;99.90
7331;DHT22;3706;49.198;7.064;2023-11-21T23:31:14;8.00;99.90
7331;DHT22;3706;49.198;7.064;2023-11-21T23:34:53;8.10;99.90
7331;DHT22;3706;49.198;7.064;2023-11-21T23:38:32;8.20;99.90
7331;DHT22;3706;49.198;7.064;2023-11-21T23:42:06;8.20;99.90
7331;DHT22;3706;49.198;7.064;2023-11-21T23:45:39;8.10;99.90
7331;DHT22;3706;49.198;7.064;2023-11-21T23:49:17;8.00;99.90
7331;DHT22;3706;49.198;7.064;2023-11-21T23:52:56;7.80;99.90
7331;DHT22;3706;49.198;7.064;2023-11-21T23:56:30;7.60;99.90
